KFAF

Felker AAF Airport

Fort Eustis, Virginia, USA
METAR KFAF 141156Z AUTO 00000KT 10SM -DZ BKN190 01/00 A3038 RMK AO2 DZB1056 SLP291 P0000 60000 T00130003 10027 20008 53011 $
Observed Flight Rules
Dec-14 @ 11:56 UTC (an hour ago) Visual Flight Rules
Visibility Clouds Conditions
10 miles
  • Broken at 19,000' AGL
  • Light Drizzle
Temperatures Readings Precipitation
Current 1°C / 34°F
Dewpoint 0°C / 32°F
Humidity 93%
Altimeter 30.38" Hg
Pressure 1029.1 hPa
Elevation 4
Current Rain 0.005
METAR KFAF 141156Z AUTO 00000KT 10SM -DZ BKN190 01/00 A3038 RMK AO2 DZB1056 SLP291 P0000 60000 T00130003 10027 20008 53011 $
Observed Flight Rules
Dec-14 @ 11:56 UTC
(an hour ago)
VFR
Clouds
  • Broken at 19,000' AGL
Conditions
  • Light Drizzle
Temperature Dewpoint
1°C / 34°F 0°C / 32°F
Humidity Altimeter Pressure
93% 30.38" Hg 1029.1 hPa
Current Rain
0.005